EGNTLFBE

Guest
Details From EGNT - Newcastle
To LFBE - Bergerac Roumaniere
Flight Number -
Tags Generated
Created
Modified
Stats Distance 619 nm / 1,146 km
Max Altitude 0 ft / 0 m
Waypoints 4
Social Downloads 0
Likes 0
Share VATSIM

Download

Looking for another format? Having issues loading an existing format? Contact us
Advertisement - Login to hide

Notes

Generated

Route

EGNT ANGLO LERGI LFBE

ID Type Via Altitude Latitude Longitude Leg Dist Tot Dist Heading (true) Name
O EGNT APT - 0 ft / 0 m 55.03353˚ -1.70634˚ - 0 nm - -
ANGLO FIX - 0 ft / 0 m 49.92833˚ -0.45500˚ 309 nm 309 nm 171° / 172° -
LERGI FIX - 0 ft / 0 m 45.00000˚ 0.50000˚ 298 nm 608 nm 172° / 173° -
O LFBE APT - 0 ft / 0 m 44.82527˚ 0.50495˚ 10 nm 618 nm 179° / 179° -

Altitude Profile

Advertisement - Login to hide

Weather


0- 5 10 15 20 25 30 35+ Temperature / ° C

Clouds and Precipitation
Forecast for 2017-12-16 18:00 UTC. Updated 8 minutes ago

Ground ~20,000 ft ~40,000 ft Winds

EGNT

Details ICAO EGNT (NCL)
Name Newcastle
Region United Kingdom
Timezone Europe/London (UTC+0.0)
Stats Elevation 266 ft / 81 m (AMSL)
Location 55.037922° -1.689833°
Runways 1
Magnetic Variation 1.477° W

METAR

EGNT 161720Z 26003KT CAVOK M00/M02 Q1018

Decode

TAF

TAF EGNT 161102Z 1612/1712 28007KT 9999 FEW035 PROB30 1622/1704 2000 BR BECMG 1706/1709 20010KT TEMPO 1706/1711 6000 RA BKN009 TEMPO 1710/1712 23015G25KT

Decode

Departure Runways

ID Width Length Bearing (true) Bearing (mag) Surface Threshold Offset Overrun Length
07 151 ft / 46 m 7,621 ft / 2,323 m 65.13° 66.61° Asphalt 394 ft / 120 m 108 ft / 33 m
25 151 ft / 46 m 7,621 ft / 2,323 m 245.16° 246.64° Asphalt 446 ft / 136 m 56 ft / 17 m

LFBE

Details ICAO LFBE (EGC)
Name Bergerac Roumaniere
Region France
Timezone Europe/Paris (UTC+1.0)
Stats Elevation 171 ft / 52 m (AMSL)
Location 44.824525° 0.518776°
Runways 1
Magnetic Variation 0.290° E

METAR

LFBE 161700Z AUTO 27004KT CAVOK 04/02 Q1024 BECMG 4000 BR

Decode

TAF

TAF LFBE 161100Z 1612/1712 32005KT CAVOK BECMG 1618/1620 4000 BR PROB40 TEMPO 1700/1706 0800 FG VV///

Decode

Destination Runways

ID Width Length Bearing (true) Bearing (mag) Surface Threshold Offset Overrun Length
10 148 ft / 45 m 7,178 ft / 2,188 m 94.33° 94.04° Asphalt 687 ft / 209 m 0 ft / 0 m
28 148 ft / 45 m 7,178 ft / 2,188 m 274.35° 274.06° Asphalt 804 ft / 245 m 0 ft / 0 m

Approach Navaids

Runway Type Ident Frequency Range Bearing (true) Bearing (mag) Slope Elevation
28 Localiser RM 108.15 MHz 18 nm / 33 km 274.33° 274.04° - 184 ft / 56 m (AMSL)
28 Glidescope RM 108.15 MHz 10 nm / 19 km 274.34° 274.05° 3.00° 220 ft / 67 m (AMSL)

Popular Alternatives